• Join FlightAware (Why Join?)
  • Login
  • US Flag 
02:14AM EDT


 

Airport Tracker/Info


-or-


 

Live Flight TrackerFlight Track Log ✈ AWE3367 ✈ 18-Feb-2014 ✈ KDCA - KPIT

Flight Track Log - Related Links

Times and Time Zones

All times are in EST time to prevent confusion due to time zone crossing. See the AWE3367 flight status page for this flight to view local times or setup timezone preferences in your user account.

Time Position Orientation Groundspeed Altitude Reporting Facility
EST Latitude Longitude Course Direction KTS MPH feet Rate Location/Type
09:04PM 38.8833 -77.0500 322° Northwest 142 163 1,800  Level Potomac TRACON
09:05PM 38.9167 -77.1000 311° West 220 253 3,600 2,400 Climbing Potomac TRACON
09:06PM 38.9667 -77.1500 322° Northwest 260 299 6,400 2,820 Climbing Potomac TRACON
09:08PM 39.1723 -77.3381 326° Northwest  Level FlightAware Approximate
09:08PM 39.0472 -77.2889 307° West 263 303 11,500  Level Washington Center
09:09PM 39.2410 -77.3970 326° Northwest  Level FlightAware Approximate
09:09PM 39.0878 -77.3700 303° West 268 308 14,400  Level Washington Center
09:10PM 39.3083 -77.4583 322° Northwest  Level FlightAware Approximate
09:10PM 39.1514 -77.4383 320° Northwest 279 321 16,800  Level Washington Center
09:11PM 39.2169 -77.5097 320° Northwest 293 337 18,800 1,560 Climbing Washington Center
09:12PM 39.2847 -77.5811 321° Northwest 305 351 20,000 540 Climbing Washington Center
09:13PM 39.3583 -77.6664 318° Northwest 330 380 20,000  Level Washington Center
09:14PM 39.4361 -77.7492 321° Northwest 346 398 20,000  Level Washington Center
09:16PM 39.5661 -77.9583 309° West 354 407 20,000  Level Cleveland Center
09:17PM 39.6000 -78.0717 291° West 342 394 20,000  Level Cleveland Center
09:18PM 39.6339 -78.1847 291° West 340 391 20,000  Level Cleveland Center
09:19PM 39.6742 -78.3192 291° West 336 387 20,000  Level Cleveland Center
09:20PM 39.7072 -78.4328 291° West 335 386 20,000  Level Cleveland Center
09:21PM 39.7403 -78.5458 291° West 335 386 20,000  Level Cleveland Center
09:22PM 39.7736 -78.6606 291° West 336 387 20,000  Level Cleveland Center
09:23PM 39.8064 -78.7711 291° West 337 388 20,000  Level Cleveland Center
09:24PM 39.8383 -78.8842 290° West 337 388 20,000  Level Cleveland Center
09:26PM 39.8744 -79.0058 291° West 338 389 20,000 -300 Level Cleveland Center
09:27PM 39.9219 -79.1119 300° West 337 388 19,400 -960 Descending Cleveland Center
09:28PM 39.9778 -79.2322 301° West 328 377 18,100 -1,440 Descending Cleveland Center
09:29PM 40.0233 -79.3353 300° West 326 375 16,500 -1,680 Descending Cleveland Center
09:30PM 40.0686 -79.4339 301° West 325 374 14,700 -1,680 Descending Cleveland Center
09:31PM 40.1119 -79.5319 300° West 316 364 13,100 -1,620 Descending Cleveland Center
09:32PM 40.1578 -79.6317 301° West 317 365 11,400 -1,320 Descending Cleveland Center
09:33PM 40.2092 -79.7267 305° West 323 372 10,400 -900 Descending Cleveland Center
09:34PM 40.2703 -79.7925 321° Northwest 288 331 9,600 -1,980 Descending Cleveland Center
09:35PM 40.3319 -79.8592 321° Northwest 245 282 6,400 -2,460 Descending Cleveland Center
09:36PM 40.3803 -79.9111 321° Northwest 230 265 4,600 -1,260 Descending Cleveland Center
09:37PM 40.4303 -79.9647 321° Northwest 230 265 3,800 -840 Descending Cleveland Center
09:38PM 40.4736 -80.0208 315° West 228 262 3,000 -420 Descending Cleveland Center
09:39PM 40.4819 -80.0808 280° West 175 201 3,000 -480 Level Cleveland Center
09:40PM 40.4842 -80.1450 273° West 150 173 2,100 -780 Descending Cleveland Center
09:41PM 40.4850 -80.1883 271° West 129 148 1,500 -600 Descending Cleveland Center